sensor_id;sensor_type;location;lat;lon;timestamp;P1;durP1;ratioP1;P2;durP2;ratioP2
42146;SDS011;27815;43.410;11.852;2022-08-18T00:02:25;13.13;;;6.88;;
42146;SDS011;27815;43.410;11.852;2022-08-18T00:06:32;12.75;;;6.72;;
42146;SDS011;27815;43.410;11.852;2022-08-18T00:10:34;11.32;;;6.47;;
42146;SDS011;27815;43.410;11.852;2022-08-18T00:14:37;9.80;;;6.05;;
42146;SDS011;27815;43.410;11.852;2022-08-18T00:18:41;13.52;;;6.72;;
42146;SDS011;27815;43.410;11.852;2022-08-18T00:22:46;17.50;;;6.45;;
42146;SDS011;27815;43.410;11.852;2022-08-18T00:26:50;11.40;;;6.40;;
42146;SDS011;27815;43.410;11.852;2022-08-18T00:30:54;10.85;;;6.70;;
42146;SDS011;27815;43.410;11.852;2022-08-18T00:34:57;14.50;;;6.95;;
42146;SDS011;27815;43.410;11.852;2022-08-18T00:39:08;11.25;;;6.95;;
42146;SDS011;27815;43.410;11.852;2022-08-18T00:43:12;12.43;;;6.85;;
42146;SDS011;27815;43.410;11.852;2022-08-18T00:47:20;12.40;;;6.75;;
42146;SDS011;27815;43.410;11.852;2022-08-18T00:51:46;11.63;;;6.93;;
42146;SDS011;27815;43.410;11.852;2022-08-18T00:55:52;15.82;;;7.05;;
42146;SDS011;27815;43.410;11.852;2022-08-18T01:00:04;12.90;;;6.20;;
42146;SDS011;27815;43.410;11.852;2022-08-18T01:04:19;13.90;;;6.40;;
42146;SDS011;27815;43.410;11.852;2022-08-18T01:08:37;10.25;;;6.20;;
42146;SDS011;27815;43.410;11.852;2022-08-18T01:12:43;13.93;;;6.18;;
42146;SDS011;27815;43.410;11.852;2022-08-18T01:16:52;15.45;;;7.13;;
42146;SDS011;27815;43.410;11.852;2022-08-18T01:21:18;15.45;;;7.15;;
42146;SDS011;27815;43.410;11.852;2022-08-18T01:25:44;11.32;;;6.82;;
42146;SDS011;27815;43.410;11.852;2022-08-18T01:30:06;18.13;;;7.15;;
42146;SDS011;27815;43.410;11.852;2022-08-18T01:38:15;14.93;;;6.60;;
42146;SDS011;27815;43.410;11.852;2022-08-18T01:42:20;14.27;;;6.47;;
42146;SDS011;27815;43.410;11.852;2022-08-18T01:46:23;13.13;;;6.43;;
42146;SDS011;27815;43.410;11.852;2022-08-18T01:50:27;12.55;;;6.95;;
42146;SDS011;27815;43.410;11.852;2022-08-18T01:54:31;14.65;;;6.75;;
42146;SDS011;27815;43.410;11.852;2022-08-18T01:58:36;18.00;;;7.05;;
42146;SDS011;27815;43.410;11.852;2022-08-18T02:02:38;12.27;;;6.90;;
42146;SDS011;27815;43.410;11.852;2022-08-18T02:06:43;11.75;;;7.18;;
42146;SDS011;27815;43.410;11.852;2022-08-18T02:10:49;22.58;;;7.05;;
42146;SDS011;27815;43.410;11.852;2022-08-18T02:14:51;16.17;;;8.27;;
42146;SDS011;27815;43.410;11.852;2022-08-18T02:18:54;14.02;;;8.73;;
42146;SDS011;27815;43.410;11.852;2022-08-18T02:22:57;14.20;;;7.95;;
42146;SDS011;27815;43.410;11.852;2022-08-18T02:27:03;15.38;;;9.55;;
42146;SDS011;27815;43.410;11.852;2022-08-18T02:31:07;16.05;;;8.45;;
42146;SDS011;27815;43.410;11.852;2022-08-18T02:35:12;13.13;;;8.57;;
42146;SDS011;27815;43.410;11.852;2022-08-18T02:39:16;14.23;;;8.60;;
42146;SDS011;27815;43.410;11.852;2022-08-18T02:43:19;19.63;;;8.63;;
42146;SDS011;27815;43.410;11.852;2022-08-18T02:47:22;14.02;;;5.75;;
42146;SDS011;27815;43.410;11.852;2022-08-18T02:51:25;16.35;;;7.35;;
42146;SDS011;27815;43.410;11.852;2022-08-18T02:55:28;18.98;;;6.95;;
42146;SDS011;27815;43.410;11.852;2022-08-18T02:59:32;13.38;;;6.80;;
42146;SDS011;27815;43.410;11.852;2022-08-18T03:03:35;12.80;;;7.20;;
42146;SDS011;27815;43.410;11.852;2022-08-18T03:07:38;16.92;;;7.05;;
42146;SDS011;27815;43.410;11.852;2022-08-18T03:11:41;15.90;;;6.30;;
42146;SDS011;27815;43.410;11.852;2022-08-18T03:15:46;13.05;;;6.82;;
42146;SDS011;27815;43.410;11.852;2022-08-18T03:19:55;14.07;;;7.22;;
42146;SDS011;27815;43.410;11.852;2022-08-18T03:23:59;13.13;;;6.20;;
42146;SDS011;27815;43.410;11.852;2022-08-18T03:28:04;13.98;;;7.22;;
42146;SDS011;27815;43.410;11.852;2022-08-18T03:32:08;13.27;;;6.32;;
42146;SDS011;27815;43.410;11.852;2022-08-18T03:36:13;14.35;;;7.35;;
42146;SDS011;27815;43.410;11.852;2022-08-18T03:44:21;14.38;;;7.72;;
42146;SDS011;27815;43.410;11.852;2022-08-18T03:48:24;14.57;;;7.68;;
42146;SDS011;27815;43.410;11.852;2022-08-18T03:52:28;11.68;;;7.70;;
42146;SDS011;27815;43.410;11.852;2022-08-18T03:56:34;13.40;;;7.68;;
42146;SDS011;27815;43.410;11.852;2022-08-18T04:00:39;19.02;;;8.60;;
42146;SDS011;27815;43.410;11.852;2022-08-18T04:04:43;13.70;;;7.10;;
42146;SDS011;27815;43.410;11.852;2022-08-18T04:08:46;17.52;;;8.45;;
42146;SDS011;27815;43.410;11.852;2022-08-18T04:12:51;14.20;;;9.35;;
42146;SDS011;27815;43.410;11.852;2022-08-18T04:16:54;13.60;;;8.65;;
42146;SDS011;27815;43.410;11.852;2022-08-18T04:21:02;13.13;;;7.05;;
42146;SDS011;27815;43.410;11.852;2022-08-18T04:25:08;17.40;;;7.80;;
42146;SDS011;27815;43.410;11.852;2022-08-18T04:29:15;14.88;;;6.88;;
42146;SDS011;27815;43.410;11.852;2022-08-18T04:33:19;12.95;;;7.15;;
42146;SDS011;27815;43.410;11.852;2022-08-18T04:37:22;14.00;;;7.35;;
42146;SDS011;27815;43.410;11.852;2022-08-18T04:41:25;12.52;;;8.15;;
42146;SDS011;27815;43.410;11.852;2022-08-18T04:49:36;15.65;;;8.27;;
42146;SDS011;27815;43.410;11.852;2022-08-18T04:53:41;14.95;;;8.13;;
42146;SDS011;27815;43.410;11.852;2022-08-18T04:57:47;14.30;;;8.15;;
42146;SDS011;27815;43.410;11.852;2022-08-18T05:01:51;14.05;;;7.55;;
42146;SDS011;27815;43.410;11.852;2022-08-18T05:05:58;14.05;;;7.60;;
42146;SDS011;27815;43.410;11.852;2022-08-18T05:10:10;15.88;;;7.25;;
42146;SDS011;27815;43.410;11.852;2022-08-18T05:14:42;11.02;;;6.60;;
42146;SDS011;27815;43.410;11.852;2022-08-18T05:18:50;15.90;;;7.63;;
42146;SDS011;27815;43.410;11.852;2022-08-18T05:23:02;12.25;;;8.07;;
42146;SDS011;27815;43.410;11.852;2022-08-18T05:27:09;15.40;;;9.73;;
42146;SDS011;27815;43.410;11.852;2022-08-18T05:31:30;18.08;;;10.23;;
42146;SDS011;27815;43.410;11.852;2022-08-18T05:35:45;14.15;;;8.48;;
42146;SDS011;27815;43.410;11.852;2022-08-18T05:39:57;12.48;;;7.38;;
42146;SDS011;27815;43.410;11.852;2022-08-18T05:44:18;14.18;;;6.88;;
42146;SDS011;27815;43.410;11.852;2022-08-18T05:48:31;12.93;;;6.50;;
42146;SDS011;27815;43.410;11.852;2022-08-18T05:57:01;12.38;;;7.85;;
42146;SDS011;27815;43.410;11.852;2022-08-18T06:01:21;20.60;;;6.30;;
42146;SDS011;27815;43.410;11.852;2022-08-18T06:05:35;13.73;;;6.78;;
42146;SDS011;27815;43.410;11.852;2022-08-18T06:09:50;16.65;;;6.50;;
42146;SDS011;27815;43.410;11.852;2022-08-18T06:13:55;11.57;;;6.40;;
42146;SDS011;27815;43.410;11.852;2022-08-18T06:22:37;18.10;;;8.35;;
42146;SDS011;27815;43.410;11.852;2022-08-18T06:31:27;14.60;;;8.88;;
42146;SDS011;27815;43.410;11.852;2022-08-18T06:35:54;17.77;;;8.60;;
42146;SDS011;27815;43.410;11.852;2022-08-18T06:40:04;25.17;;;10.23;;
42146;SDS011;27815;43.410;11.852;2022-08-18T06:44:12;12.57;;;8.98;;
42146;SDS011;27815;43.410;11.852;2022-08-18T06:48:41;11.90;;;9.90;;
42146;SDS011;27815;43.410;11.852;2022-08-18T06:56:54;13.48;;;9.02;;
42146;SDS011;27815;43.410;11.852;2022-08-18T07:00:59;13.35;;;8.90;;
42146;SDS011;27815;43.410;11.852;2022-08-18T07:05:12;16.27;;;7.90;;
42146;SDS011;27815;43.410;11.852;2022-08-18T07:09:21;16.52;;;6.63;;
42146;SDS011;27815;43.410;11.852;2022-08-18T07:13:29;14.75;;;6.05;;
42146;SDS011;27815;43.410;11.852;2022-08-18T07:17:34;13.55;;;6.45;;
42146;SDS011;27815;43.410;11.852;2022-08-18T07:21:46;15.95;;;7.47;;
42146;SDS011;27815;43.410;11.852;2022-08-18T07:26:12;16.02;;;8.00;;
42146;SDS011;27815;43.410;11.852;2022-08-18T07:34:26;14.75;;;5.63;;
42146;SDS011;27815;43.410;11.852;2022-08-18T07:39:02;15.80;;;5.55;;
42146;SDS011;27815;43.410;11.852;2022-08-18T07:43:13;12.52;;;6.03;;
42146;SDS011;27815;43.410;11.852;2022-08-18T07:55:49;21.60;;;7.25;;
42146;SDS011;27815;43.410;11.852;2022-08-18T08:00:05;13.25;;;6.07;;
42146;SDS011;27815;43.410;11.852;2022-08-18T08:09:18;15.45;;;4.85;;
42146;SDS011;27815;43.410;11.852;2022-08-18T08:17:59;12.63;;;4.15;;
42146;SDS011;27815;43.410;11.852;2022-08-18T08:22:36;19.98;;;4.93;;
42146;SDS011;27815;43.410;11.852;2022-08-18T08:26:41;16.63;;;4.35;;
42146;SDS011;27815;43.410;11.852;2022-08-18T08:35:43;19.85;;;4.47;;
42146;SDS011;27815;43.410;11.852;2022-08-18T08:48:24;19.60;;;4.72;;
42146;SDS011;27815;43.410;11.852;2022-08-18T08:57:04;17.00;;;4.43;;
42146;SDS011;27815;43.410;11.852;2022-08-18T09:01:31;16.65;;;4.30;;
42146;SDS011;27815;43.410;11.852;2022-08-18T09:05:55;20.60;;;4.40;;
42146;SDS011;27815;43.410;11.852;2022-08-18T09:19:17;15.38;;;4.57;;
42146;SDS011;27815;43.410;11.852;2022-08-18T09:23:47;10.88;;;2.80;;
42146;SDS011;27815;43.410;11.852;2022-08-18T09:32:54;8.27;;;2.47;;
42146;SDS011;27815;43.410;11.852;2022-08-18T09:41:36;9.00;;;2.75;;
42146;SDS011;27815;43.410;11.852;2022-08-18T09:45:55;10.02;;;3.47;;
42146;SDS011;27815;43.410;11.852;2022-08-18T09:54:15;7.53;;;3.40;;
42146;SDS011;27815;43.410;11.852;2022-08-18T10:06:39;12.25;;;3.45;;
42146;SDS011;27815;43.410;11.852;2022-08-18T10:10:50;7.80;;;2.90;;
42146;SDS011;27815;43.410;11.852;2022-08-18T10:15:23;11.07;;;3.30;;
42146;SDS011;27815;43.410;11.852;2022-08-18T10:20:18;7.30;;;3.20;;
42146;SDS011;27815;43.410;11.852;2022-08-18T10:38:24;13.50;;;4.80;;
42146;SDS011;27815;43.410;11.852;2022-08-18T10:43:14;9.48;;;3.95;;
42146;SDS011;27815;43.410;11.852;2022-08-18T10:47:41;8.85;;;3.85;;
42146;SDS011;27815;43.410;11.852;2022-08-18T10:52:03;8.30;;;3.35;;
42146;SDS011;27815;43.410;11.852;2022-08-18T11:00:44;6.22;;;3.05;;
42146;SDS011;27815;43.410;11.852;2022-08-18T11:05:06;7.07;;;3.00;;
42146;SDS011;27815;43.410;11.852;2022-08-18T11:09:17;5.25;;;2.70;;
42146;SDS011;27815;43.410;11.852;2022-08-18T11:13:32;5.93;;;3.00;;
42146;SDS011;27815;43.410;11.852;2022-08-18T11:27:54;7.32;;;2.72;;
42146;SDS011;27815;43.410;11.852;2022-08-18T11:36:38;8.82;;;4.57;;
42146;SDS011;27815;43.410;11.852;2022-08-18T11:40:52;5.38;;;3.95;;
42146;SDS011;27815;43.410;11.852;2022-08-18T11:45:15;5.13;;;4.63;;
42146;SDS011;27815;43.410;11.852;2022-08-18T11:49:29;7.78;;;5.88;;
42146;SDS011;27815;43.410;11.852;2022-08-18T11:57:59;8.98;;;5.80;;
42146;SDS011;27815;43.410;11.852;2022-08-18T12:02:16;8.02;;;5.95;;
42146;SDS011;27815;43.410;11.852;2022-08-18T12:06:23;11.32;;;5.97;;
42146;SDS011;27815;43.410;11.852;2022-08-18T12:10:31;9.05;;;6.15;;
42146;SDS011;27815;43.410;11.852;2022-08-18T12:14:50;8.32;;;5.50;;
42146;SDS011;27815;43.410;11.852;2022-08-18T12:19:13;8.30;;;5.70;;
42146;SDS011;27815;43.410;11.852;2022-08-18T12:23:21;8.60;;;5.60;;
42146;SDS011;27815;43.410;11.852;2022-08-18T12:27:25;11.43;;;6.35;;
42146;SDS011;27815;43.410;11.852;2022-08-18T12:31:33;9.30;;;6.45;;
42146;SDS011;27815;43.410;11.852;2022-08-18T12:35:51;9.43;;;6.15;;
42146;SDS011;27815;43.410;11.852;2022-08-18T12:39:58;10.13;;;6.10;;
42146;SDS011;27815;43.410;11.852;2022-08-18T12:44:02;9.30;;;6.05;;
42146;SDS011;27815;43.410;11.852;2022-08-18T12:48:11;11.40;;;6.47;;
42146;SDS011;27815;43.410;11.852;2022-08-18T12:52:14;9.13;;;4.30;;
42146;SDS011;27815;43.410;11.852;2022-08-18T12:56:20;9.10;;;4.53;;
42146;SDS011;27815;43.410;11.852;2022-08-18T13:00:26;7.35;;;3.38;;
42146;SDS011;27815;43.410;11.852;2022-08-18T13:04:32;11.73;;;3.75;;
42146;SDS011;27815;43.410;11.852;2022-08-18T13:08:36;9.63;;;3.78;;
42146;SDS011;27815;43.410;11.852;2022-08-18T13:12:51;8.55;;;4.93;;
42146;SDS011;27815;43.410;11.852;2022-08-18T13:16:54;10.48;;;7.20;;
42146;SDS011;27815;43.410;11.852;2022-08-18T13:20:58;9.65;;;7.25;;
42146;SDS011;27815;43.410;11.852;2022-08-18T13:25:01;8.05;;;7.32;;
42146;SDS011;27815;43.410;11.852;2022-08-18T13:29:07;10.73;;;8.23;;
42146;SDS011;27815;43.410;11.852;2022-08-18T13:33:11;9.18;;;8.27;;
42146;SDS011;27815;43.410;11.852;2022-08-18T13:37:35;12.38;;;8.88;;
42146;SDS011;27815;43.410;11.852;2022-08-18T13:41:37;9.30;;;8.38;;
42146;SDS011;27815;43.410;11.852;2022-08-18T13:45:46;9.20;;;8.30;;
42146;SDS011;27815;43.410;11.852;2022-08-18T13:49:57;10.23;;;8.80;;
42146;SDS011;27815;43.410;11.852;2022-08-18T13:54:01;10.40;;;8.43;;
42146;SDS011;27815;43.410;11.852;2022-08-18T13:58:25;8.57;;;7.63;;
42146;SDS011;27815;43.410;11.852;2022-08-18T14:02:29;11.35;;;7.75;;
42146;SDS011;27815;43.410;11.852;2022-08-18T14:06:32;10.68;;;7.18;;
42146;SDS011;27815;43.410;11.852;2022-08-18T14:10:36;9.50;;;7.70;;
42146;SDS011;27815;43.410;11.852;2022-08-18T14:14:39;11.52;;;5.90;;
42146;SDS011;27815;43.410;11.852;2022-08-18T14:18:42;9.77;;;5.03;;
42146;SDS011;27815;43.410;11.852;2022-08-18T14:22:48;10.50;;;5.50;;
42146;SDS011;27815;43.410;11.852;2022-08-18T14:27:12;11.18;;;5.03;;
42146;SDS011;27815;43.410;11.852;2022-08-18T14:31:15;9.57;;;5.50;;
42146;SDS011;27815;43.410;11.852;2022-08-18T14:35:24;11.95;;;6.70;;
42146;SDS011;27815;43.410;11.852;2022-08-18T14:39:47;14.43;;;5.95;;
42146;SDS011;27815;43.410;11.852;2022-08-18T14:43:54;9.35;;;5.97;;
42146;SDS011;27815;43.410;11.852;2022-08-18T14:48:16;14.27;;;7.00;;
42146;SDS011;27815;43.410;11.852;2022-08-18T14:52:22;15.88;;;7.85;;
42146;SDS011;27815;43.410;11.852;2022-08-18T14:56:28;14.90;;;8.47;;
42146;SDS011;27815;43.410;11.852;2022-08-18T15:00:39;12.45;;;9.40;;
42146;SDS011;27815;43.410;11.852;2022-08-18T15:04:55;13.25;;;8.63;;
42146;SDS011;27815;43.410;11.852;2022-08-18T15:09:02;11.13;;;7.57;;
42146;SDS011;27815;43.410;11.852;2022-08-18T15:13:05;13.45;;;7.80;;
42146;SDS011;27815;43.410;11.852;2022-08-18T15:17:09;14.93;;;7.53;;
42146;SDS011;27815;43.410;11.852;2022-08-18T15:21:15;14.00;;;6.15;;
42146;SDS011;27815;43.410;11.852;2022-08-18T15:25:40;12.07;;;6.43;;
42146;SDS011;27815;43.410;11.852;2022-08-18T15:33:52;14.10;;;5.68;;
42146;SDS011;27815;43.410;11.852;2022-08-18T15:37:58;12.75;;;5.43;;
42146;SDS011;27815;43.410;11.852;2022-08-18T15:42:07;9.13;;;5.32;;
42146;SDS011;27815;43.410;11.852;2022-08-18T15:46:12;12.88;;;5.05;;
42146;SDS011;27815;43.410;11.852;2022-08-18T15:50:18;16.80;;;4.57;;
42146;SDS011;27815;43.410;11.852;2022-08-18T15:54:27;10.85;;;4.85;;
42146;SDS011;27815;43.410;11.852;2022-08-18T15:58:30;12.65;;;4.88;;
42146;SDS011;27815;43.410;11.852;2022-08-18T16:02:34;11.30;;;5.28;;
42146;SDS011;27815;43.410;11.852;2022-08-18T16:06:40;12.85;;;6.28;;
42146;SDS011;27815;43.410;11.852;2022-08-18T16:10:47;12.95;;;6.38;;
42146;SDS011;27815;43.410;11.852;2022-08-18T16:14:51;14.82;;;6.40;;
42146;SDS011;27815;43.410;11.852;2022-08-18T16:19:03;13.02;;;7.00;;
42146;SDS011;27815;43.410;11.852;2022-08-18T16:23:07;15.20;;;7.07;;
42146;SDS011;27815;43.410;11.852;2022-08-18T16:27:12;15.50;;;7.85;;
42146;SDS011;27815;43.410;11.852;2022-08-18T16:31:15;10.48;;;7.30;;
42146;SDS011;27815;43.410;11.852;2022-08-18T16:35:18;12.40;;;6.60;;
42146;SDS011;27815;43.410;11.852;2022-08-18T16:39:22;17.23;;;6.75;;
42146;SDS011;27815;43.410;11.852;2022-08-18T16:43:25;16.27;;;7.00;;
42146;SDS011;27815;43.410;11.852;2022-08-18T16:47:31;17.45;;;9.40;;
42146;SDS011;27815;43.410;11.852;2022-08-18T16:51:40;14.02;;;9.00;;
42146;SDS011;27815;43.410;11.852;2022-08-18T16:55:50;13.30;;;9.20;;
42146;SDS011;27815;43.410;11.852;2022-08-18T16:59:53;17.33;;;8.38;;
42146;SDS011;27815;43.410;11.852;2022-08-18T17:04:21;18.60;;;9.45;;
42146;SDS011;27815;43.410;11.852;2022-08-18T17:08:35;11.73;;;7.20;;
42146;SDS011;27815;43.410;11.852;2022-08-18T17:12:39;13.95;;;6.38;;
42146;SDS011;27815;43.410;11.852;2022-08-18T17:16:45;14.23;;;6.95;;
42146;SDS011;27815;43.410;11.852;2022-08-18T17:20:50;15.60;;;6.25;;
42146;SDS011;27815;43.410;11.852;2022-08-18T17:24:58;12.55;;;6.07;;
42146;SDS011;27815;43.410;11.852;2022-08-18T17:33:12;17.23;;;7.22;;
42146;SDS011;27815;43.410;11.852;2022-08-18T17:37:34;18.55;;;5.90;;
42146;SDS011;27815;43.410;11.852;2022-08-18T17:41:38;10.73;;;5.43;;
42146;SDS011;27815;43.410;11.852;2022-08-18T17:46:08;15.23;;;5.95;;
42146;SDS011;27815;43.410;11.852;2022-08-18T17:55:27;12.73;;;5.82;;
42146;SDS011;27815;43.410;11.852;2022-08-18T18:04:12;15.52;;;5.88;;
42146;SDS011;27815;43.410;11.852;2022-08-18T18:08:16;15.55;;;6.15;;
42146;SDS011;27815;43.410;11.852;2022-08-18T18:12:22;16.20;;;6.78;;
42146;SDS011;27815;43.410;11.852;2022-08-18T18:16:31;14.23;;;6.63;;
42146;SDS011;27815;43.410;11.852;2022-08-18T18:20:39;14.45;;;6.00;;
42146;SDS011;27815;43.410;11.852;2022-08-18T18:29:09;18.30;;;6.47;;
42146;SDS011;27815;43.410;11.852;2022-08-18T18:33:37;23.65;;;7.40;;
42146;SDS011;27815;43.410;11.852;2022-08-18T18:37:46;18.45;;;7.72;;
42146;SDS011;27815;43.410;11.852;2022-08-18T18:42:08;22.33;;;6.55;;
42146;SDS011;27815;43.410;11.852;2022-08-18T18:46:28;19.23;;;6.05;;
42146;SDS011;27815;43.410;11.852;2022-08-18T18:50:53;18.40;;;6.22;;
42146;SDS011;27815;43.410;11.852;2022-08-18T18:55:20;16.38;;;6.30;;
42146;SDS011;27815;43.410;11.852;2022-08-18T18:59:45;18.40;;;8.25;;
42146;SDS011;27815;43.410;11.852;2022-08-18T19:03:55;17.23;;;6.75;;
42146;SDS011;27815;43.410;11.852;2022-08-18T19:12:42;22.38;;;7.13;;
42146;SDS011;27815;43.410;11.852;2022-08-18T19:16:59;21.73;;;7.60;;
42146;SDS011;27815;43.410;11.852;2022-08-18T19:21:22;16.13;;;6.90;;
42146;SDS011;27815;43.410;11.852;2022-08-18T19:25:50;15.05;;;5.30;;
42146;SDS011;27815;43.410;11.852;2022-08-18T19:29:56;19.80;;;6.90;;
42146;SDS011;27815;43.410;11.852;2022-08-18T19:34:05;15.25;;;5.90;;
42146;SDS011;27815;43.410;11.852;2022-08-18T19:38:20;17.10;;;7.88;;
42146;SDS011;27815;43.410;11.852;2022-08-18T19:42:59;13.68;;;7.55;;
42146;SDS011;27815;43.410;11.852;2022-08-18T19:47:09;20.23;;;8.40;;
42146;SDS011;27815;43.410;11.852;2022-08-18T19:51:20;16.60;;;9.02;;
42146;SDS011;27815;43.410;11.852;2022-08-18T20:04:26;19.02;;;8.80;;
42146;SDS011;27815;43.410;11.852;2022-08-18T20:22:03;15.88;;;9.43;;
42146;SDS011;27815;43.410;11.852;2022-08-18T20:32:30;11.80;;;6.50;;
42146;SDS011;27815;43.410;11.852;2022-08-18T20:36:43;11.68;;;5.80;;
42146;SDS011;27815;43.410;11.852;2022-08-18T20:58:11;19.67;;;10.55;;
42146;SDS011;27815;43.410;11.852;2022-08-18T21:02:56;17.05;;;15.35;;
42146;SDS011;27815;43.410;11.852;2022-08-18T21:07:03;9.13;;;4.53;;
42146;SDS011;27815;43.410;11.852;2022-08-18T21:11:24;7.47;;;3.08;;
42146;SDS011;27815;43.410;11.852;2022-08-18T21:15:37;10.00;;;3.40;;
42146;SDS011;27815;43.410;11.852;2022-08-18T21:19:40;7.55;;;4.00;;
42146;SDS011;27815;43.410;11.852;2022-08-18T21:23:46;8.48;;;5.00;;
42146;SDS011;27815;43.410;11.852;2022-08-18T21:27:54;12.02;;;5.72;;
42146;SDS011;27815;43.410;11.852;2022-08-18T21:32:08;10.63;;;5.75;;
42146;SDS011;27815;43.410;11.852;2022-08-18T21:36:16;12.68;;;6.50;;
42146;SDS011;27815;43.410;11.852;2022-08-18T21:40:28;12.18;;;5.93;;
42146;SDS011;27815;43.410;11.852;2022-08-18T21:44:40;15.02;;;6.93;;
42146;SDS011;27815;43.410;11.852;2022-08-18T21:48:47;11.32;;;6.93;;
42146;SDS011;27815;43.410;11.852;2022-08-18T22:01:25;18.13;;;7.13;;
42146;SDS011;27815;43.410;11.852;2022-08-18T22:05:32;14.20;;;6.82;;
42146;SDS011;27815;43.410;11.852;2022-08-18T22:10:17;13.23;;;7.20;;
42146;SDS011;27815;43.410;11.852;2022-08-18T22:14:46;19.50;;;7.17;;
42146;SDS011;27815;43.410;11.852;2022-08-18T22:27:56;16.98;;;7.30;;
42146;SDS011;27815;43.410;11.852;2022-08-18T22:32:01;14.40;;;6.93;;
42146;SDS011;27815;43.410;11.852;2022-08-18T22:36:05;11.43;;;7.45;;
42146;SDS011;27815;43.410;11.852;2022-08-18T22:40:09;10.95;;;6.88;;
42146;SDS011;27815;43.410;11.852;2022-08-18T22:44:15;11.48;;;6.70;;
42146;SDS011;27815;43.410;11.852;2022-08-18T22:48:18;12.43;;;6.28;;
42146;SDS011;27815;43.410;11.852;2022-08-18T22:52:25;13.55;;;7.07;;
42146;SDS011;27815;43.410;11.852;2022-08-18T22:56:32;17.58;;;7.65;;
42146;SDS011;27815;43.410;11.852;2022-08-18T23:04:44;12.98;;;6.93;;
42146;SDS011;27815;43.410;11.852;2022-08-18T23:08:46;17.27;;;8.40;;
42146;SDS011;27815;43.410;11.852;2022-08-18T23:12:56;18.40;;;8.55;;
42146;SDS011;27815;43.410;11.852;2022-08-18T23:17:05;14.23;;;8.13;;
42146;SDS011;27815;43.410;11.852;2022-08-18T23:21:08;14.95;;;10.50;;
42146;SDS011;27815;43.410;11.852;2022-08-18T23:25:31;15.05;;;9.90;;
42146;SDS011;27815;43.410;11.852;2022-08-18T23:29:34;15.40;;;9.07;;
42146;SDS011;27815;43.410;11.852;2022-08-18T23:33:37;20.15;;;11.18;;
42146;SDS011;27815;43.410;11.852;2022-08-18T23:37:42;16.27;;;12.38;;
42146;SDS011;27815;43.410;11.852;2022-08-18T23:41:45;14.85;;;11.07;;
42146;SDS011;27815;43.410;11.852;2022-08-18T23:45:49;22.52;;;12.63;;
42146;SDS011;27815;43.410;11.852;2022-08-18T23:49:53;19.42;;;15.18;;
42146;SDS011;27815;43.410;11.852;2022-08-18T23:53:56;20.55;;;15.98;;
42146;SDS011;27815;43.410;11.852;2022-08-18T23:58:01;20.30;;;12.77;;
